Time;durP1;ratioP1;P1;durP2;ratioP2;P2;SDS_P1;SDS_P2;PMS_P1;PMS_P2;Temp;Humidity;BMP_temperature;BMP_pressure;BME280_temperature;BME280_humidity;BME280_pressure;Samples;Min_cycle;Max_cycle;Signal;HPM_P1;HPM_P2
2023/12/21 00:00:22;;;;;;;2.88;2.58;;;;;;;-10.82;91.27;100365.22;5036063;28;20048;-68
2023/12/21 00:02:52;;;;;;;3.33;2.70;;;;;;;-10.86;91.36;100367.53;5019563;28;20137;-66
2023/12/21 00:05:24;;;;;;;2.33;2.20;;;;;;;-10.79;91.67;100373.00;5033083;28;20140;-69
2023/12/21 00:07:55;;;;;;;4.20;2.75;;;;;;;-10.71;91.42;100366.84;5024018;28;20129;-64
2023/12/21 00:10:25;;;;;;;5.85;2.83;;;;;;;-10.75;91.02;100355.66;5037485;28;20056;-68
2023/12/21 00:12:56;;;;;;;2.83;2.30;;;;;;;-10.77;91.94;100386.63;5048189;28;20117;-66
2023/12/21 00:15:26;;;;;;;2.55;2.35;;;;;;;-10.89;92.92;100376.53;5058284;28;20110;-70
2023/12/21 00:17:57;;;;;;;2.67;2.47;;;;;;;-10.91;93.31;100389.03;5049291;28;20128;-65
2023/12/21 00:20:29;;;;;;;2.45;2.25;;;;;;;-10.90;93.50;100385.75;5059190;28;20048;-70
2023/12/21 00:22:59;;;;;;;3.05;2.50;;;;;;;-10.97;93.06;100387.75;5044624;28;20051;-68
2023/12/21 00:25:29;;;;;;;2.70;2.30;;;;;;;-10.93;92.81;100384.63;5058212;28;20082;-67
2023/12/21 00:28:00;;;;;;;4.63;2.67;;;;;;;-10.96;93.33;100390.34;5048037;28;20478;-70
2023/12/21 00:30:30;;;;;;;4.88;3.08;;;;;;;-10.98;93.44;100399.47;5059319;28;20047;-67
2023/12/21 00:33:01;;;;;;;5.68;2.60;;;;;;;-11.01;93.93;100396.72;5042052;28;20109;-69
2023/12/21 00:35:33;;;;;;;2.50;2.30;;;;;;;-10.95;93.86;100401.34;5054421;28;20068;-64
2023/12/21 00:38:03;;;;;;;3.35;2.90;;;;;;;-10.95;93.79;100412.31;5058844;28;20151;-65
2023/12/21 00:40:34;;;;;;;3.55;2.75;;;;;;;-10.98;93.72;100404.53;5048706;28;20090;-68
2023/12/21 00:43:06;;;;;;;2.85;2.65;;;;;;;-10.94;94.26;100403.09;5058951;28;20044;-65
2023/12/21 00:45:36;;;;;;;2.80;2.53;;;;;;;-10.88;93.78;100404.41;5048078;28;20638;-68
2023/12/21 00:48:07;;;;;;;4.30;2.47;;;;;;;-10.91;93.50;100399.13;5059255;28;20174;-67
2023/12/21 00:50:39;;;;;;;5.38;2.70;;;;;;;-10.86;93.55;100372.59;5049018;28;20369;-66
2023/12/21 00:53:10;;;;;;;4.35;2.50;;;;;;;-10.78;93.62;100389.91;5058752;28;20052;-64
2023/12/21 00:55:40;;;;;;;2.47;2.28;;;;;;;-10.78;93.28;100379.78;5045329;28;20052;-67
2023/12/21 00:58:11;;;;;;;3.13;2.60;;;;;;;-10.80;92.86;100383.88;5058758;28;20051;-66
2023/12/21 01:00:41;;;;;;;3.00;2.65;;;;;;;-10.83;92.83;100381.13;5051301;28;20052;-67
2023/12/21 01:03:12;;;;;;;2.65;2.35;;;;;;;-10.89;93.03;100372.34;5063105;28;20080;-69
2023/12/21 01:05:44;;;;;;;3.03;2.72;;;;;;;-10.98;92.40;100371.72;5051320;28;20087;-70
2023/12/21 01:08:14;;;;;;;3.80;2.40;;;;;;;-10.99;92.31;100369.09;5059572;28;20052;-71
2023/12/21 01:10:45;;;;;;;2.53;2.33;;;;;;;-10.90;92.84;100375.66;5048199;28;20052;-69
2023/12/21 01:13:15;;;;;;;3.78;2.60;;;;;;;-10.86;92.32;100372.59;5062217;28;20552;-66
2023/12/21 01:15:46;;;;;;;2.80;2.60;;;;;;;-10.83;91.92;100368.50;5052150;28;20825;-70
2023/12/21 01:18:16;;;;;;;6.47;2.70;;;;;;;-10.79;91.97;100367.97;5062521;28;20075;-67
2023/12/21 01:20:49;;;;;;;2.65;2.35;;;;;;;-10.72;92.36;100360.03;5052590;28;20047;-66
2023/12/21 01:23:19;;;;;;;2.33;2.13;;;;;;;-10.72;91.32;100360.03;5059257;28;20105;-65
2023/12/21 01:25:49;;;;;;;3.92;2.50;;;;;;;-10.74;92.11;100362.44;5048865;28;20080;-69
2023/12/21 01:28:20;;;;;;;4.00;2.10;;;;;;;-10.77;93.11;100356.31;5059075;28;20476;-67
2023/12/21 01:30:50;;;;;;;2.67;2.47;;;;;;;-10.75;93.01;100359.84;5048631;28;20090;-69
2023/12/21 01:33:21;;;;;;;2.30;2.20;;;;;;;-10.71;92.85;100346.63;5060208;28;20047;-65
2023/12/21 01:35:53;;;;;;;2.60;2.40;;;;;;;-10.60;92.81;100335.66;5051922;28;20590;-69
2023/12/21 01:38:23;;;;;;;4.70;2.85;;;;;;;-10.78;92.55;100334.34;5061886;28;20047;-67
2023/12/21 01:40:54;;;;;;;2.70;2.40;;;;;;;-10.87;93.23;100330.44;5051207;28;20052;-68
2023/12/21 01:43:24;;;;;;;5.28;2.63;;;;;;;-10.94;93.41;100317.28;5058450;28;20113;-70
2023/12/21 01:45:55;;;;;;;3.90;2.50;;;;;;;-10.93;93.43;100324.97;5051509;28;20377;-68
2023/12/21 01:48:26;;;;;;;2.83;2.63;;;;;;;-11.00;93.75;100310.16;5062223;28;20048;-68
2023/12/21 01:51:00;;;;;;;3.33;2.42;;;;;;;-11.09;94.02;100312.03;5051558;28;20071;-68
2023/12/21 01:53:31;;;;;;;3.97;2.50;;;;;;;-11.04;94.31;100320.81;5062132;28;20131;-67
2023/12/21 01:56:04;;;;;;;17.80;2.40;;;;;;;-10.98;94.63;100316.22;5044373;28;20071;-66
2023/12/21 01:58:35;;;;;;;3.08;2.45;;;;;;;-10.99;94.23;100314.44;5051358;28;20048;-66
2023/12/21 02:01:07;;;;;;;2.95;2.40;;;;;;;-11.00;94.26;100296.69;5061812;28;20132;-65
2023/12/21 02:03:39;;;;;;;3.28;2.50;;;;;;;-10.93;94.44;100307.31;5051616;28;20133;-68
2023/12/21 02:06:11;;;;;;;3.28;2.53;;;;;;;-10.95;93.69;100281.09;5061771;28;20052;-65
2023/12/21 02:08:42;;;;;;;2.90;2.67;;;;;;;-10.90;93.77;100307.50;5051332;28;20147;-65
2023/12/21 02:11:12;;;;;;;5.15;2.58;;;;;;;-10.77;93.08;100311.75;5061520;28;20105;-64
2023/12/21 02:13:43;;;;;;;2.40;2.20;;;;;;;-10.81;92.01;100288.72;5051055;28;20052;-64
2023/12/21 02:16:21;;;;;;;3.25;2.50;;;;;;;-10.69;91.69;100287.03;5057216;28;20376;-66
2023/12/21 02:18:51;;;;;;;3.13;2.50;;;;;;;-10.68;91.90;100281.22;5047531;28;20076;-66
2023/12/21 02:21:24;;;;;;;3.10;2.33;;;;;;;-10.66;91.58;100280.56;5061070;28;20567;-70
2023/12/21 02:23:56;;;;;;;10.98;2.83;;;;;;;-10.80;91.13;100267.78;5051545;28;20142;-68
2023/12/21 02:26:28;;;;;;;3.28;2.35;;;;;;;-10.74;91.07;100285.84;5061148;28;20175;-71
2023/12/21 02:28:59;;;;;;;3.15;2.30;;;;;;;-10.82;91.21;100276.88;5042704;28;20452;-72
2023/12/21 02:31:29;;;;;;;3.28;2.20;;;;;;;-10.83;91.03;100280.16;5057852;28;20051;-69
2023/12/21 02:34:00;;;;;;;2.70;2.50;;;;;;;-10.82;92.02;100271.84;5050708;28;20047;-71
2023/12/21 02:36:30;;;;;;;3.17;2.47;;;;;;;-10.89;91.55;100261.28;5061327;28;20062;-68
2023/12/21 02:39:01;;;;;;;2.28;2.17;;;;;;;-10.82;91.03;100271.84;5043329;28;20044;-70
2023/12/21 02:41:33;;;;;;;2.75;2.55;;;;;;;-10.72;91.19;100264.09;5057866;28;20051;-64
2023/12/21 02:44:03;;;;;;;3.67;2.30;;;;;;;-10.61;91.14;100268.22;5060341;28;21210;-67
2023/12/21 02:46:33;;;;;;;2.58;2.38;;;;;;;-10.54;89.87;100255.25;5046849;28;20059;-68
2023/12/21 02:49:04;;;;;;;5.05;2.45;;;;;;;-10.62;90.19;100261.44;5060475;28;20058;-67
2023/12/21 02:51:34;;;;;;;4.18;2.28;;;;;;;-10.53;90.16;100254.50;5050670;28;20044;-68
2023/12/21 02:54:05;;;;;;;4.25;2.42;;;;;;;-10.53;89.81;100251.06;5060929;28;20131;-67
2023/12/21 02:56:37;;;;;;;3.55;2.67;;;;;;;-10.40;90.00;100252.78;5047433;28;20752;-65
2023/12/21 02:59:07;;;;;;;4.40;2.50;;;;;;;-10.29;89.69;100241.72;5060765;28;20200;-66
2023/12/21 03:01:43;;;;;;;2.08;1.98;;;;;;;-10.19;89.77;100249.09;5050573;28;20114;-67
2023/12/21 03:04:14;;;;;;;3.08;2.45;;;;;;;-10.33;89.07;100199.34;5059683;28;20044;-63
2023/12/21 03:06:44;;;;;;;2.97;2.15;;;;;;;-10.18;89.45;100225.59;5049128;28;20040;-65
2023/12/21 03:09:14;;;;;;;3.22;2.28;;;;;;;-10.28;89.31;100231.72;5059251;28;20142;-67
2023/12/21 03:11:46;;;;;;;3.10;2.13;;;;;;;-10.12;89.89;100236.09;5048856;28;20143;-67
2023/12/21 03:14:17;;;;;;;3.03;2.20;;;;;;;-10.12;89.18;100218.41;5059794;28;20105;-67
2023/12/21 03:16:48;;;;;;;3.35;2.30;;;;;;;-10.32;90.02;100219.66;5049452;28;20666;-68
2023/12/21 03:19:18;;;;;;;3.92;2.40;;;;;;;-10.32;89.97;100231.41;5059883;28;20054;-66
2023/12/21 03:21:49;;;;;;;2.28;2.08;;;;;;;-10.39;90.33;100214.09;5048964;28;20131;-67
2023/12/21 03:24:19;;;;;;;2.30;2.10;;;;;;;-10.32;90.98;100232.28;5059090;28;20044;-67
2023/12/21 03:26:51;;;;;;;2.42;2.22;;;;;;;-10.39;90.90;100204.00;5050133;28;20075;-66
2023/12/21 03:29:21;;;;;;;3.10;2.80;;;;;;;-10.46;91.39;100213.72;5059779;28;20551;-66
2023/12/21 03:31:54;;;;;;;2.53;2.33;;;;;;;-10.42;91.50;100215.66;5049648;28;20063;-64
2023/12/21 03:34:24;;;;;;;2.60;2.40;;;;;;;-10.42;91.86;100214.78;5059522;28;20128;-65
2023/12/21 03:36:55;;;;;;;2.75;2.42;;;;;;;-10.47;91.75;100181.63;5046101;28;20380;-65
2023/12/21 03:39:25;;;;;;;2.65;2.45;;;;;;;-10.47;92.08;100198.44;5057014;28;20055;-66
2023/12/21 03:41:57;;;;;;;2.92;2.60;;;;;;;-10.64;92.92;100187.22;5049641;28;20724;-64
2023/12/21 03:44:28;;;;;;;3.00;2.72;;;;;;;-10.64;93.98;100178.00;5056074;28;20083;-65
2023/12/21 03:46:58;;;;;;;4.22;3.20;;;;;;;-10.66;94.41;100178.66;5048912;28;20121;-63
2023/12/21 03:49:29;;;;;;;4.30;2.80;;;;;;;-10.65;94.91;100175.38;5060015;28;20097;-66
2023/12/21 03:52:00;;;;;;;3.28;2.28;;;;;;;-10.64;94.43;100172.06;5049069;28;20044;-65
2023/12/21 03:54:30;;;;;;;2.58;2.38;;;;;;;-10.71;95.02;100164.88;5059641;28;20567;-62
2023/12/21 03:57:02;;;;;;;3.22;2.50;;;;;;;-10.64;95.29;100172.94;5049153;28;20062;-64
2023/12/21 03:59:34;;;;;;;2.67;2.47;;;;;;;-10.66;94.81;100163.53;5049414;28;20432;-64
2023/12/21 04:02:05;;;;;;;2.30;2.10;;;;;;;-10.64;94.78;100174.59;5059144;28;20262;-63
2023/12/21 04:04:36;;;;;;;4.82;2.83;;;;;;;-10.61;94.66;100174.78;5045257;28;20361;-64
2023/12/21 04:07:06;;;;;;;3.13;2.60;;;;;;;-10.59;94.96;100178.31;5056268;28;20511;-62
2023/12/21 04:09:38;;;;;;;3.05;2.60;;;;;;;-10.56;95.61;100165.00;5048711;28;20262;-62
2023/12/21 04:12:10;;;;;;;3.78;2.30;;;;;;;-10.59;95.74;100175.78;5059819;28;20051;-65
2023/12/21 04:14:41;;;;;;;2.20;2.10;;;;;;;-10.51;95.77;100188.91;5049128;28;20212;-64
2023/12/21 04:17:11;;;;;;;6.65;2.72;;;;;;;-10.54;96.16;100171.91;5055996;28;20198;-63
2023/12/21 04:19:42;;;;;;;2.65;2.38;;;;;;;-10.58;96.34;100176.66;5045596;28;20056;-62
2023/12/21 04:22:12;;;;;;;3.40;2.28;;;;;;;-10.63;97.11;100173.84;5059389;28;20059;-62
2023/12/21 04:24:45;;;;;;;2.70;2.50;;;;;;;-10.74;97.14;100152.06;5048525;28;20583;-63
2023/12/21 04:27:17;;;;;;;3.53;2.80;;;;;;;-10.72;97.71;100185.84;5058859;28;20075;-63
2023/12/21 04:29:47;;;;;;;2.72;2.42;;;;;;;-10.73;98.18;100176.50;5048911;28;20091;-63
2023/12/21 04:32:19;;;;;;;2.80;2.60;;;;;;;-10.79;98.79;100171.06;5059509;28;20058;-64
2023/12/21 04:34:49;;;;;;;2.75;2.53;;;;;;;-10.79;99.00;100171.06;5043889;28;20051;-62
2023/12/21 04:37:20;;;;;;;4.40;2.67;;;;;;;-10.73;98.92;100161.34;5058605;28;20105;-64
2023/12/21 04:39:50;;;;;;;2.92;2.63;;;;;;;-10.70;98.81;100171.69;5046311;28;20550;-65
2023/12/21 04:42:22;;;;;;;9.13;2.92;;;;;;;-10.70;99.20;100175.06;5057828;28;20175;-63
2023/12/21 04:44:53;;;;;;;5.22;2.65;;;;;;;-10.80;99.46;100174.38;5048620;28;20066;-62
2023/12/21 04:47:23;;;;;;;3.88;2.58;;;;;;;-10.77;99.49;100149.31;5056996;28;20109;-64
2023/12/21 04:49:54;;;;;;;4.43;2.40;;;;;;;-10.90;99.36;100162.78;5047117;28;20147;-61
2023/12/21 04:52:24;;;;;;;4.70;3.03;;;;;;;-10.82;99.57;100160.78;5055394;28;20063;-65
2023/12/21 04:54:55;;;;;;;4.82;2.75;;;;;;;-10.83;99.73;100164.03;5047686;28;20048;-62
2023/12/21 04:57:27;;;;;;;5.85;2.70;;;;;;;-10.77;99.81;100177.09;5057883;28;20052;-62
2023/12/21 04:59:57;;;;;;;3.83;2.60;;;;;;;-10.76;99.50;100172.13;5034924;28;20052;-62
2023/12/21 05:02:27;;;;;;;4.20;2.63;;;;;;;-10.71;99.82;100174.97;5056519;28;20063;-61
2023/12/21 05:04:58;;;;;;;2.92;2.72;;;;;;;-10.74;99.78;100174.75;5040075;28;20509;-63
2023/12/21 05:07:28;;;;;;;3.28;2.72;;;;;;;-10.78;100.00;100162.69;5058611;28;20708;-63
2023/12/21 05:10:00;;;;;;;14.43;2.70;;;;;;;-10.77;99.77;100174.56;5048332;28;20062;-63
2023/12/21 05:12:33;;;;;;;2.63;2.42;;;;;;;-10.80;99.86;100174.38;5052371;28;20158;-63
2023/12/21 05:15:03;;;;;;;2.58;2.38;;;;;;;-10.83;100.00;100159.91;5058373;28;20995;-62
2023/12/21 05:17:33;;;;;;;6.45;2.53;;;;;;;-10.84;99.93;100165.69;5048699;28;20047;-63
2023/12/21 05:20:05;;;;;;;7.55;2.80;;;;;;;-10.83;100.00;100164.03;5058312;28;20644;-61
2023/12/21 05:22:35;;;;;;;4.45;2.70;;;;;;;-10.91;100.00;100146.75;5048156;28;20080;-62
2023/12/21 05:25:06;;;;;;;2.88;2.13;;;;;;;-10.91;100.00;100156.84;5057970;28;20056;-62
2023/12/21 05:27:39;;;;;;;2.50;2.30;;;;;;;-10.89;100.00;100164.53;5044769;28;20048;-62
2023/12/21 05:30:10;;;;;;;4.15;2.63;;;;;;;-10.87;100.00;100173.94;5058895;28;20135;-62
2023/12/21 05:32:41;;;;;;;2.78;2.58;;;;;;;-10.94;100.00;100181.88;5048681;28;20044;-62
2023/12/21 05:35:11;;;;;;;5.50;2.95;;;;;;;-10.94;100.00;100181.00;5058814;28;20071;-65
2023/12/21 05:37:42;;;;;;;2.67;2.35;;;;;;;-10.93;100.00;100181.13;5044962;28;20109;-62
2023/12/21 05:40:15;;;;;;;4.57;2.58;;;;;;;-10.95;100.00;100185.19;5058634;28;20113;-62
2023/12/21 05:42:47;;;;;;;4.78;2.85;;;;;;;-10.98;100.00;100164.78;5047850;28;20076;-62
2023/12/21 05:45:18;;;;;;;2.92;2.72;;;;;;;-10.99;100.00;100163.03;5056772;28;20058;-66
2023/12/21 05:47:48;;;;;;;3.90;2.45;;;;;;;-11.00;100.00;100166.34;5050331;28;20146;-66
2023/12/21 05:50:19;;;;;;;2.33;2.22;;;;;;;-11.04;100.00;100164.38;5062304;28;20395;-65
2023/12/21 05:52:51;;;;;;;2.60;2.40;;;;;;;-11.03;100.00;100163.63;5050917;28;20040;-66
2023/12/21 05:55:21;;;;;;;2.78;2.50;;;;;;;-11.08;100.00;100167.47;5058838;28;20492;-63
2023/12/21 05:57:53;;;;;;;2.90;2.70;;;;;;;-11.11;100.00;100164.72;5047294;28;20073;-63
2023/12/21 06:00:24;;;;;;;2.40;2.20;;;;;;;-11.22;100.00;100164.00;5061912;28;20143;-65
2023/12/21 06:02:54;;;;;;;3.08;2.50;;;;;;;-11.12;100.00;100170.56;5051749;28;20068;-64
2023/12/21 06:05:25;;;;;;;5.63;2.80;;;;;;;-11.11;100.00;100172.28;5061357;28;20552;-64
2023/12/21 06:07:55;;;;;;;3.30;2.70;;;;;;;-11.17;100.00;100167.72;5050709;28;20052;-62
2023/12/21 06:10:25;;;;;;;3.00;2.75;;;;;;;-11.12;100.00;100175.59;5057848;28;20048;-64
2023/12/21 06:12:57;;;;;;;2.85;2.50;;;;;;;-11.16;100.00;100158.50;5050945;28;20056;-65
2023/12/21 06:15:28;;;;;;;3.80;2.90;;;;;;;-11.35;100.00;100142.13;5061149;28;20063;-64
2023/12/21 06:17:58;;;;;;;2.60;2.40;;;;;;;-11.12;100.00;100180.63;5043668;28;20143;-66
2023/12/21 06:20:30;;;;;;;5.40;2.78;;;;;;;-11.13;100.00;100183.91;5058025;28;20091;-65
2023/12/21 06:23:00;;;;;;;4.40;3.40;;;;;;;-11.12;100.00;100166.38;5050882;28;20135;-66
2023/12/21 06:25:31;;;;;;;4.03;2.60;;;;;;;-11.14;100.00;100146.84;5058308;28;20052;-64
2023/12/21 06:28:07;;;;;;;3.55;2.72;;;;;;;-11.11;100.00;100162.19;5061045;28;20048;-66
2023/12/21 06:30:38;;;;;;;5.75;2.60;;;;;;;-11.12;100.00;100170.56;5051001;28;20507;-66
2023/12/21 06:33:08;;;;;;;4.30;2.50;;;;;;;-11.13;100.00;100168.78;5060992;28;20792;-65
2023/12/21 06:35:39;;;;;;;7.07;2.85;;;;;;;-11.12;100.00;100161.31;5048576;28;20167;-66
2023/12/21 06:38:09;;;;;;;4.00;2.88;;;;;;;-11.08;100.00;100185.13;5057679;28;20155;-65
2023/12/21 06:40:40;;;;;;;2.72;2.53;;;;;;;-11.11;100.00;100167.25;5050725;28;20078;-65
2023/12/21 06:43:12;;;;;;;2.80;2.60;;;;;;;-11.13;100.00;100178.88;5060824;28;20048;-64
2023/12/21 06:45:42;;;;;;;2.80;2.60;;;;;;;-11.14;100.00;100177.13;5050605;28;20128;-62
2023/12/21 06:48:13;;;;;;;2.63;2.40;;;;;;;-11.12;100.00;100170.56;5060287;28;20044;-61
2023/12/21 06:50:44;;;;;;;2.95;2.72;;;;;;;-11.23;100.00;100159.75;5050690;28;20509;-63
2023/12/21 06:53:15;;;;;;;8.52;2.45;;;;;;;-11.11;100.00;100179.84;5060961;28;20058;-65
2023/12/21 06:55:46;;;;;;;3.85;2.80;;;;;;;-11.15;100.00;100180.44;5050359;28;20194;-64
2023/12/21 06:58:18;;;;;;;6.53;2.78;;;;;;;-11.08;100.00;100182.63;5059045;28;20143;-64
2023/12/21 07:00:48;;;;;;;6.20;3.08;;;;;;;-11.08;100.00;100187.66;5049361;28;20430;-66
2023/12/21 07:03:19;;;;;;;3.13;2.30;;;;;;;-11.02;100.00;100198.16;5058451;28;20070;-65
2023/12/21 07:05:50;;;;;;;2.85;2.60;;;;;;;-11.10;100.00;100179.09;5049813;28;20070;-64
2023/12/21 07:08:22;;;;;;;2.65;2.45;;;;;;;-10.99;100.00;100200.88;5056895;28;20051;-64
2023/12/21 07:10:53;;;;;;;3.35;2.42;;;;;;;-11.00;100.00;100185.66;5046949;28;20057;-62
2023/12/21 07:13:25;;;;;;;2.60;2.40;;;;;;;-10.99;100.00;100193.31;5060398;28;20537;-64
2023/12/21 07:15:55;;;;;;;2.42;2.22;;;;;;;-10.99;100.00;100193.31;5048775;28;20483;-63
2023/12/21 07:18:26;;;;;;;3.38;3.08;;;;;;;-10.96;100.00;100207.78;5057533;28;20056;-64
2023/12/21 07:20:56;;;;;;;3.55;2.20;;;;;;;-10.96;100.00;100197.69;5049653;28;20475;-65
2023/12/21 07:23:27;;;;;;;4.35;2.35;;;;;;;-10.91;100.00;100202.25;5058182;28;20146;-64
2023/12/21 07:25:57;;;;;;;3.60;2.60;;;;;;;-10.92;100.00;100204.72;5044638;28;20054;-64
2023/12/21 07:28:30;;;;;;;3.33;2.58;;;;;;;-10.93;100.00;100197.88;5059800;28;20154;-62
2023/12/21 07:31:01;;;;;;;5.53;2.60;;;;;;;-10.90;100.00;100188.88;5046209;28;20672;-64
2023/12/21 07:33:31;;;;;;;6.75;2.60;;;;;;;-10.89;100.00;100172.97;5056280;28;20538;-64
2023/12/21 07:36:02;;;;;;;3.95;2.50;;;;;;;-10.86;100.00;100178.25;5059996;28;20043;-64
2023/12/21 07:38:32;;;;;;;3.42;2.78;;;;;;;-10.82;100.00;100186.00;5050929;28;20055;-63
2023/12/21 07:41:03;;;;;;;5.18;2.28;;;;;;;-10.81;100.00;100182.69;5059245;28;20073;-65
2023/12/21 07:43:36;;;;;;;4.18;2.42;;;;;;;-10.82;100.00;100180.97;5048740;28;20586;-64
2023/12/21 07:46:07;;;;;;;2.50;2.30;;;;;;;-10.78;100.00;100193.00;5058905;28;20052;-63
2023/12/21 07:48:38;;;;;;;2.47;2.30;;;;;;;-10.76;100.00;100186.41;5045726;28;20052;-63
2023/12/21 07:51:10;;;;;;;2.15;2.03;;;;;;;-10.77;100.00;100185.53;5059640;28;20075;-63
2023/12/21 07:53:40;;;;;;;2.30;2.20;;;;;;;-10.77;100.00;100189.72;5047856;28;20087;-63
2023/12/21 07:56:11;;;;;;;2.50;2.30;;;;;;;-10.74;100.00;100184.88;5055971;28;20139;-63
2023/12/21 07:58:43;;;;;;;3.22;2.20;;;;;;;-10.74;100.00;100187.38;5046243;28;20137;-62
2023/12/21 08:01:13;;;;;;;2.50;2.30;;;;;;;-10.73;100.00;100190.03;5055828;28;20052;-61
2023/12/21 08:03:44;;;;;;;2.60;2.40;;;;;;;-10.74;100.00;100174.75;5045136;28;20820;-63
2023/12/21 08:06:22;;;;;;;3.33;2.17;;;;;;;-10.73;100.00;100181.56;5058332;28;20052;-64
2023/12/21 08:08:53;;;;;;;3.10;2.40;;;;;;;-10.71;100.00;100180.00;5048093;28;20047;-64
2023/12/21 08:11:26;;;;;;;2.40;2.20;;;;;;;-10.75;100.00;100162.94;5055908;28;20865;-64
2023/12/21 08:14:01;;;;;;;20.20;2.30;;;;;;;-10.66;100.00;100173.63;5048655;28;20068;-63
2023/12/21 08:16:31;;;;;;;2.42;2.13;;;;;;;-10.65;100.00;100175.38;5055810;28;20044;-63
2023/12/21 08:19:02;;;;;;;4.43;2.30;;;;;;;-10.68;100.00;100170.16;5058958;28;20834;-64
2023/12/21 08:21:32;;;;;;;2.63;2.42;;;;;;;-10.60;100.00;100179.09;5050035;28;20814;-65
2023/12/21 08:24:03;;;;;;;4.32;2.55;;;;;;;-10.53;100.00;100188.81;5058505;28;20139;-64
2023/12/21 08:26:34;;;;;;;2.17;2.00;;;;;;;-10.50;100.00;100196.59;5049232;28;20056;-65
2023/12/21 08:29:06;;;;;;;3.53;2.47;;;;;;;-10.53;100.00;100201.44;5058170;28;20125;-61
2023/12/21 08:31:39;;;;;;;4.50;2.70;;;;;;;-10.52;100.00;100203.19;5047550;28;20055;-62
2023/12/21 08:34:11;;;;;;;2.65;2.20;;;;;;;-10.53;100.00;100209.03;5059107;28;20568;-65
2023/12/21 08:36:41;;;;;;;3.05;1.90;;;;;;;-10.56;100.00;100211.31;5045290;28;20461;-64
2023/12/21 08:39:11;;;;;;;4.95;2.60;;;;;;;-10.59;100.00;100201.03;5058073;28;20131;-64
2023/12/21 08:41:42;;;;;;;2.40;2.20;;;;;;;-10.60;100.00;100209.38;5046790;28;20056;-63
2023/12/21 08:44:14;;;;;;;2.42;2.22;;;;;;;-10.61;100.00;100211.81;5058753;28;20144;-64
2023/12/21 08:46:44;;;;;;;3.55;2.20;;;;;;;-10.79;100.00;100221.56;5048248;28;20133;-63
2023/12/21 08:49:17;;;;;;;2.95;2.42;;;;;;;-10.66;100.00;100229.16;5058464;28;20056;-63
2023/12/21 08:51:49;;;;;;;3.92;2.30;;;;;;;-10.68;100.00;100240.84;5045008;28;20867;-62
2023/12/21 08:54:19;;;;;;;2.90;2.60;;;;;;;-10.84;100.00;100240.56;5056606;28;20048;-65
2023/12/21 08:56:51;;;;;;;3.35;2.70;;;;;;;-11.26;100.00;100241.88;5046991;28;20048;-63
2023/12/21 08:59:26;;;;;;;2.63;2.42;;;;;;;-11.40;100.00;100254.41;5057667;28;20131;-65
2023/12/21 09:01:56;;;;;;;4.22;2.60;;;;;;;-11.54;100.00;100255.94;5048014;28;20408;-64
2023/12/21 09:04:27;;;;;;;4.65;2.70;;;;;;;-11.92;100.00;100205.38;5058301;28;20133;-63
2023/12/21 09:06:57;;;;;;;3.30;2.72;;;;;;;-11.61;100.00;100263.81;5047930;28;20739;-66
2023/12/21 09:09:29;;;;;;;4.10;3.08;;;;;;;-11.65;100.00;100261.00;5058270;28;20055;-67
2023/12/21 09:12:00;;;;;;;8.27;3.20;;;;;;;-12.07;100.00;100185.00;5039990;28;20116;-65
2023/12/21 09:14:32;;;;;;;6.25;2.97;;;;;;;-11.64;100.00;100267.78;5054259;28;20146;-64
2023/12/21 09:17:03;;;;;;;5.80;3.10;;;;;;;-11.61;100.00;100273.03;5043376;28;20071;-64
2023/12/21 09:19:34;;;;;;;7.05;5.25;;;;;;;-11.64;100.00;100287.97;5047975;28;20154;-64
2023/12/21 09:22:05;;;;;;;4.47;3.30;;;;;;;-11.71;100.00;100286.63;5058190;28;21909;-64
2023/12/21 09:24:36;;;;;;;2.95;2.63;;;;;;;-11.75;100.00;100289.72;5052048;28;20044;-67
2023/12/21 09:27:06;;;;;;;3.92;2.40;;;;;;;-11.82;100.00;100277.44;5062339;28;20048;-67
2023/12/21 09:29:38;;;;;;;2.58;2.38;;;;;;;-11.85;100.00;100278.09;5052667;28;20044;-64
2023/12/21 09:32:09;;;;;;;10.73;2.42;;;;;;;-11.92;100.00;100217.97;5062582;28;20555;-64
2023/12/21 09:34:40;;;;;;;3.08;2.50;;;;;;;-11.92;100.00;100265.84;5048679;28;20052;-66
2023/12/21 09:37:11;;;;;;;5.22;2.42;;;;;;;-11.95;100.00;100273.19;5061727;28;20514;-67
2023/12/21 09:39:41;;;;;;;4.60;2.47;;;;;;;-11.96;100.00;100269.75;5052105;28;20048;-68
2023/12/21 09:42:16;;;;;;;2.58;2.38;;;;;;;-12.00;100.00;100264.41;5061788;28;20062;-65
2023/12/21 09:44:48;;;;;;;5.60;2.40;;;;;;;-11.98;100.00;100288.06;5052304;28;20064;-64
2023/12/21 09:47:22;;;;;;;4.53;2.50;;;;;;;-12.01;100.00;100282.78;5062074;28;21333;-66
2023/12/21 09:49:54;;;;;;;3.80;2.75;;;;;;;-12.11;100.00;100272.81;5051406;28;20072;-68
2023/12/21 09:52:26;;;;;;;9.50;2.60;;;;;;;-12.09;100.00;100301.50;5061653;28;20476;-64
2023/12/21 09:54:57;;;;;;;3.05;2.60;;;;;;;-12.11;100.00;100298.00;5051117;28;20052;-66
2023/12/21 09:57:28;;;;;;;5.68;2.70;;;;;;;-12.36;100.00;100268.47;5060615;28;20062;-65
2023/12/21 10:00:00;;;;;;;2.90;2.42;;;;;;;-12.19;100.00;100284.84;5051345;28;20481;-65
2023/12/21 10:02:31;;;;;;;2.50;2.30;;;;;;;-12.23;100.00;100291.31;5061064;28;20486;-66
2023/12/21 10:05:04;;;;;;;2.53;2.40;;;;;;;-12.30;100.00;100296.66;5044056;28;20154;-64
2023/12/21 10:07:35;;;;;;;2.67;2.47;;;;;;;-12.34;100.00;100289.63;5047784;28;20055;-68
2023/12/21 10:10:07;;;;;;;2.88;2.45;;;;;;;-12.38;100.00;100287.63;5056763;28;20352;-65
2023/12/21 10:12:41;;;;;;;2.80;2.40;;;;;;;-12.40;100.00;100274.94;5046741;28;20045;-63
2023/12/21 10:15:14;;;;;;;3.30;3.00;;;;;;;-12.42;100.00;100290.69;5060341;28;20056;-62
2023/12/21 10:17:44;;;;;;;3.60;2.80;;;;;;;-12.44;100.00;100282.16;5051575;28;20809;-66
2023/12/21 10:20:15;;;;;;;3.38;2.80;;;;;;;-12.44;100.00;100288.06;5061178;28;20200;-64
2023/12/21 10:22:46;;;;;;;3.40;3.08;;;;;;;-12.43;100.00;100284.78;5047569;28;20048;-65
2023/12/21 10:25:17;;;;;;;4.57;2.90;;;;;;;-12.43;100.00;100283.88;5057709;28;20048;-64
2023/12/21 10:27:55;;;;;;;5.50;3.20;;;;;;;-12.42;100.00;100290.69;5047722;28;20048;-62
2023/12/21 10:30:27;;;;;;;2.85;2.65;;;;;;;-12.41;100.00;100300.00;5058595;28;20101;-63
2023/12/21 10:32:58;;;;;;;3.83;3.17;;;;;;;-12.42;100.00;100305.81;5050996;28;20073;-64
2023/12/21 10:35:29;;;;;;;3.35;3.05;;;;;;;-12.42;100.00;100300.78;5060772;28;20098;-65
2023/12/21 10:38:00;;;;;;;3.72;2.95;;;;;;;-12.42;100.00;100300.78;5030015;28;20059;-65
2023/12/21 10:40:30;;;;;;;3.15;2.67;;;;;;;-12.41;100.00;100302.50;5040511;28;20139;-63
2023/12/21 10:43:01;;;;;;;6.72;3.75;;;;;;;-12.43;100.00;100311.59;5050209;28;21333;-67
2023/12/21 10:45:33;;;;;;;4.55;3.13;;;;;;;-12.43;100.00;100293.97;5058282;28;20051;-64
2023/12/21 10:48:08;;;;;;;4.25;3.08;;;;;;;-12.46;100.00;100298.78;5061076;28;20060;-65
2023/12/21 10:50:40;;;;;;;5.28;2.92;;;;;;;-12.48;100.00;100288.59;5051365;28;20052;-63
2023/12/21 10:53:13;;;;;;;3.67;2.75;;;;;;;-12.47;100.00;100281.94;5060945;28;20048;-66
2023/12/21 10:55:45;;;;;;;8.13;2.80;;;;;;;-12.49;100.00;100293.50;5050240;28;20058;-63
2023/12/21 10:58:16;;;;;;;3.20;2.90;;;;;;;-12.53;100.00;100276.41;5057616;28;20070;-66
2023/12/21 11:00:49;;;;;;;3.10;2.75;;;;;;;-12.56;100.00;100266.13;5050540;28;20621;-65
2023/12/21 11:03:21;;;;;;;5.00;3.28;;;;;;;-13.19;100.00;100189.28;5060264;28;20491;-65
2023/12/21 11:05:53;;;;;;;3.65;2.63;;;;;;;-12.52;100.00;100285.75;5051125;28;20056;-63
2023/12/21 11:08:25;;;;;;;3.28;2.85;;;;;;;-12.50;100.00;100281.66;5060690;28;20146;-66
2023/12/21 11:10:56;;;;;;;4.03;3.10;;;;;;;-12.58;100.00;100272.66;5050251;28;20135;-67
2023/12/21 11:13:27;;;;;;;3.28;3.00;;;;;;;-12.47;100.00;100297.03;5056872;28;20048;-64
2023/12/21 11:16:00;;;;;;;3.80;3.05;;;;;;;-12.55;100.00;100277.94;5034971;28;20059;-65
2023/12/21 11:18:31;;;;;;;3.08;2.80;;;;;;;-12.52;100.00;100288.25;5040903;28;20114;-66
2023/12/21 11:21:04;;;;;;;2.90;2.60;;;;;;;-12.49;100.00;100289.34;5030617;28;20121;-65
2023/12/21 11:23:42;;;;;;;3.08;2.88;;;;;;;-12.49;100.00;100283.44;5030169;28;20056;-67
2023/12/21 11:26:20;;;;;;;9.40;2.67;;;;;;;-12.46;100.00;100283.66;5040675;28;20127;-66
2023/12/21 11:28:51;;;;;;;3.20;2.90;;;;;;;-12.43;100.00;100289.81;5033506;28;20060;-66